createdAt,value
2023-05-01T00:01:59.334Z,56.63
2023-05-01T00:04:27.037Z,56.76
2023-05-01T00:06:54.766Z,56.81
2023-05-01T00:09:22.439Z,56.97
2023-05-01T00:11:50.041Z,57.15
2023-05-01T00:14:17.711Z,57.10
2023-05-01T01:03:34.728Z,56.36
2023-05-01T01:06:05.475Z,56.18
2023-05-01T01:08:35.723Z,55.94
2023-05-01T01:11:06.038Z,55.73
2023-05-01T01:13:34.179Z,55.70
2023-05-01T01:48:12.632Z,56.17
2023-05-01T01:50:40.354Z,56.32
2023-05-01T01:53:10.067Z,56.36
2023-05-01T01:55:37.751Z,56.56
2023-05-01T01:58:05.921Z,56.70
2023-05-01T02:47:23.904Z,57.49
2023-05-01T02:49:52.343Z,57.51
2023-05-01T02:52:20.768Z,57.59
2023-05-01T02:54:50.851Z,57.66
2023-05-01T02:57:18.637Z,57.59
2023-05-01T02:59:46.352Z,57.91
2023-05-01T03:46:08.379Z,57.90
2023-05-01T03:48:36.208Z,57.70
2023-05-01T03:51:04.396Z,57.91
2023-05-01T03:53:32.524Z,57.93
2023-05-01T03:56:01.865Z,58.00
2023-05-01T03:58:30.647Z,58.09
2023-05-01T04:47:55.321Z,58.23
2023-05-01T04:50:23.228Z,58.38
2023-05-01T04:52:51.032Z,58.33
2023-05-01T04:55:19.529Z,58.17
2023-05-01T04:58:03.696Z,58.50
2023-05-01T05:00:31.659Z,58.25
2023-05-01T05:03:00.966Z,58.28
2023-05-01T05:05:28.751Z,58.16
2023-05-01T05:07:56.413Z,58.03
2023-05-01T05:10:46.877Z,58.17
2023-05-01T05:13:22.204Z,58.08
2023-05-01T05:15:57.593Z,58.22
2023-05-01T05:18:27.211Z,58.11
2023-05-01T05:20:55.868Z,58.19
2023-05-01T05:23:23.583Z,58.20
2023-05-01T05:25:51.287Z,57.89
2023-05-01T05:28:20.470Z,57.92
2023-05-01T05:30:49.132Z,58.04
2023-05-01T05:33:20.179Z,58.11
2023-05-01T05:35:49.433Z,58.00
2023-05-01T05:38:17.255Z,57.80
2023-05-01T05:40:47.433Z,57.92
2023-05-01T05:43:15.104Z,57.78
2023-05-01T05:45:43.127Z,57.92
2023-05-01T05:48:11.149Z,57.88
2023-05-01T05:50:41.546Z,57.66
2023-05-01T05:53:11.783Z,57.87
2023-05-01T05:55:39.630Z,58.01
2023-05-01T05:58:08.697Z,58.04
2023-05-01T06:00:38.032Z,57.94
2023-05-01T06:03:07.409Z,57.86
2023-05-01T06:05:36.563Z,57.62
2023-05-01T06:08:05.032Z,57.93
2023-05-01T06:10:34.144Z,57.60
2023-05-01T06:13:13.752Z,57.38
2023-05-01T06:15:45.283Z,57.87
2023-05-01T06:18:13.444Z,58.24
2023-05-01T06:20:41.371Z,58.19
2023-05-01T06:23:09.648Z,58.29
2023-05-01T06:25:53.225Z,58.39
2023-05-01T06:28:21.509Z,58.42
2023-05-01T06:30:49.246Z,58.54
2023-05-01T06:33:18.818Z,58.41
2023-05-01T06:35:52.759Z,58.32
2023-05-01T06:38:20.463Z,54.18
2023-05-01T06:40:49.820Z,54.43
2023-05-01T06:43:18.830Z,57.23
2023-05-01T06:45:46.609Z,57.15
2023-05-01T06:48:14.635Z,56.59
2023-05-01T06:50:42.317Z,56.67
2023-05-01T06:53:09.988Z,56.82
2023-05-01T06:55:37.656Z,56.61
2023-05-01T06:58:16.014Z,56.67
2023-05-01T07:00:51.538Z,56.48
2023-05-01T07:03:30.460Z,56.54
2023-05-01T07:05:58.561Z,56.07
2023-05-01T07:08:28.144Z,56.27
2023-05-01T07:10:55.941Z,56.06
2023-05-01T07:13:23.714Z,55.63
2023-05-01T07:15:54.689Z,55.76
2023-05-01T07:18:22.649Z,55.72
2023-05-01T07:20:50.932Z,55.91
2023-05-01T07:23:18.692Z,55.50
2023-05-01T07:25:46.403Z,55.56
2023-05-01T07:28:14.090Z,55.67
2023-05-01T07:30:41.976Z,55.61
2023-05-01T07:33:11.656Z,55.52
2023-05-01T07:35:39.516Z,55.61
2023-05-01T07:38:07.944Z,55.79
2023-05-01T07:40:36.630Z,55.72
2023-05-01T07:43:04.981Z,55.92
2023-05-01T07:45:33.257Z,55.70
2023-05-01T07:48:00.987Z,55.60
2023-05-01T07:50:30.090Z,55.69
2023-05-01T07:52:58.081Z,55.83
2023-05-01T07:55:25.730Z,55.75
2023-05-01T07:57:53.441Z,55.77
2023-05-01T08:00:21.403Z,55.69
2023-05-01T08:02:49.133Z,55.79
2023-05-01T08:05:16.894Z,55.75
2023-05-01T08:07:46.023Z,55.44
2023-05-01T08:10:13.731Z,55.52
2023-05-01T08:12:41.437Z,55.69
2023-05-01T08:15:09.585Z,55.60
2023-05-01T08:17:37.469Z,55.76
2023-05-01T08:20:05.505Z,55.48
2023-05-01T08:22:33.172Z,55.56
2023-05-01T08:25:02.269Z,55.60
2023-05-01T08:27:30.491Z,55.52
2023-05-01T08:29:58.408Z,55.51
2023-05-01T08:32:26.337Z,55.64
2023-05-01T08:34:54.767Z,47.03
2023-05-01T08:37:22.427Z,41.88
2023-05-01T08:39:50.172Z,39.65
2023-05-01T08:42:19.547Z,38.65
2023-05-01T08:44:47.374Z,38.79
2023-05-01T08:47:16.812Z,37.78
2023-05-01T08:49:44.571Z,38.06
2023-05-01T08:52:12.611Z,37.64
2023-05-01T08:54:40.597Z,40.14
2023-05-01T08:57:10.232Z,40.78
2023-05-01T08:59:39.687Z,41.96
2023-05-01T09:02:08.212Z,42.38
2023-05-01T09:04:36.840Z,43.35
2023-05-01T09:07:04.896Z,43.91
2023-05-01T09:09:32.745Z,44.55
2023-05-01T09:12:01.825Z,44.82
2023-05-01T09:14:29.748Z,45.09
2023-05-01T09:16:58.877Z,45.43
2023-05-01T09:19:26.761Z,45.48
2023-05-01T09:21:54.562Z,45.90
2023-05-01T09:24:22.602Z,45.91
2023-05-01T09:26:50.238Z,46.13
2023-05-01T09:29:30.401Z,46.29
2023-05-01T09:31:59.619Z,46.39
2023-05-01T09:34:27.347Z,46.47
2023-05-01T09:36:54.992Z,46.68
2023-05-01T09:39:23.813Z,46.61
2023-05-01T09:41:51.799Z,46.81
2023-05-01T09:44:20.365Z,47.09
2023-05-01T09:46:49.502Z,46.79
2023-05-01T09:49:18.542Z,47.26
2023-05-01T09:51:46.365Z,47.08
2023-05-01T09:54:18.800Z,47.24
2023-05-01T09:56:47.431Z,47.42
2023-05-01T09:59:18.096Z,47.43
2023-05-01T10:01:46.530Z,47.47
2023-05-01T10:04:14.443Z,47.64
2023-05-01T10:06:43.585Z,47.66
2023-05-01T10:09:17.351Z,47.82
2023-05-01T10:11:48.695Z,47.82
2023-05-01T10:14:16.321Z,47.90
2023-05-01T10:16:43.979Z,48.03
2023-05-01T10:19:11.778Z,48.07
2023-05-01T10:21:39.458Z,47.98
2023-05-01T10:24:10.108Z,48.31
2023-05-01T10:26:37.863Z,48.26
2023-05-01T10:29:05.956Z,48.29
2023-05-01T10:31:33.865Z,48.26
2023-05-01T10:34:01.943Z,48.42
2023-05-01T10:36:33.500Z,48.38
2023-05-01T10:39:01.197Z,48.46
2023-05-01T10:41:48.139Z,48.54
2023-05-01T10:44:24.092Z,48.57
2023-05-01T10:46:51.908Z,48.66
2023-05-01T10:49:19.697Z,48.68
2023-05-01T10:52:05.112Z,48.79
2023-05-01T10:54:33.164Z,48.70
2023-05-01T10:57:01.450Z,48.88
2023-05-01T10:59:30.534Z,48.77
2023-05-01T11:01:58.276Z,48.81
2023-05-01T11:04:44.506Z,48.92
2023-05-01T11:07:15.719Z,49.05
2023-05-01T11:09:43.756Z,48.88
2023-05-01T11:12:12.167Z,49.08
2023-05-01T11:15:02.687Z,48.98
2023-05-01T11:17:54.393Z,49.08
2023-05-01T11:20:41.128Z,48.99
2023-05-01T11:23:10.197Z,48.94
2023-05-01T11:25:38.118Z,49.03
2023-05-01T11:28:06.688Z,48.94
2023-05-01T11:30:37.492Z,48.93
2023-05-01T11:33:05.694Z,49.13
2023-05-01T11:35:34.091Z,49.08
2023-05-01T11:38:01.855Z,49.10
2023-05-01T11:40:31.421Z,49.10
2023-05-01T11:43:01.352Z,49.12
2023-05-01T11:45:29.110Z,49.19
2023-05-01T11:47:57.063Z,49.34
2023-05-01T11:50:24.917Z,49.26
2023-05-01T11:52:53.674Z,49.22
2023-05-01T11:55:21.451Z,49.25
2023-05-01T11:57:51.117Z,49.38
2023-05-01T12:00:26.690Z,49.51
2023-05-01T12:03:01.295Z,49.38
2023-05-01T12:05:29.438Z,49.34
2023-05-01T12:08:09.918Z,49.46
2023-05-01T12:10:37.676Z,49.48
2023-05-01T12:13:06.904Z,49.47
2023-05-01T12:15:36.245Z,49.31
2023-05-01T12:18:03.954Z,49.41
2023-05-01T12:20:41.488Z,49.42
2023-05-01T12:23:10.573Z,49.60
2023-05-01T12:25:39.379Z,49.48
2023-05-01T12:28:12.362Z,49.52
2023-05-01T12:30:40.083Z,49.51
2023-05-01T12:33:11.411Z,49.67
2023-05-01T12:35:39.749Z,49.58
2023-05-01T12:38:11.281Z,49.73
2023-05-01T12:40:38.954Z,49.64
2023-05-01T12:43:06.619Z,49.52
2023-05-01T12:45:41.485Z,49.64
2023-05-01T12:48:15.596Z,49.68
2023-05-01T12:50:44.791Z,49.75
2023-05-01T12:53:13.603Z,49.69
2023-05-01T12:55:45.734Z,49.66
2023-05-01T12:58:13.551Z,49.69
2023-05-01T13:00:46.722Z,49.62
2023-05-01T13:03:16.947Z,49.77
2023-05-01T13:05:51.493Z,49.73
2023-05-01T13:08:23.680Z,49.74
2023-05-01T13:10:52.846Z,49.75
2023-05-01T13:13:24.699Z,49.90
2023-05-01T13:15:53.739Z,49.78
2023-05-01T13:18:21.435Z,49.78
2023-05-01T13:20:49.121Z,49.90
2023-05-01T13:23:16.798Z,49.90
2023-05-01T13:25:44.536Z,49.95
2023-05-01T13:28:13.077Z,49.82
2023-05-01T13:30:40.763Z,49.81
2023-05-01T13:33:10.385Z,49.85
2023-05-01T13:35:39.179Z,49.88
2023-05-01T13:38:07.023Z,49.89
2023-05-01T13:40:34.674Z,49.93
2023-05-01T13:43:02.395Z,49.82
2023-05-01T13:45:30.396Z,49.92
2023-05-01T13:47:58.183Z,49.96
2023-05-01T13:50:27.618Z,50.01
2023-05-01T13:52:55.281Z,49.96
2023-05-01T13:55:23.162Z,50.03
2023-05-01T13:57:50.841Z,49.98
2023-05-01T14:00:19.211Z,50.12
2023-05-01T14:02:48.379Z,50.12
2023-05-01T14:05:16.259Z,50.00
2023-05-01T14:07:50.854Z,50.07
2023-05-01T14:10:18.504Z,50.03
2023-05-01T14:12:46.166Z,50.00
2023-05-01T14:15:13.817Z,50.08
2023-05-01T14:17:42.245Z,50.02
2023-05-01T14:20:10.328Z,50.17
2023-05-01T14:22:43.312Z,50.09
2023-05-01T14:25:18.638Z,50.19
2023-05-01T14:27:46.350Z,50.08
2023-05-01T14:30:15.273Z,50.14
2023-05-01T14:32:43.690Z,50.16
2023-05-01T14:35:11.545Z,50.10
2023-05-01T14:37:39.347Z,50.18
2023-05-01T14:40:09.751Z,50.22
2023-05-01T14:42:39.049Z,50.12
2023-05-01T14:45:07.690Z,50.23
2023-05-01T14:47:35.509Z,50.14
2023-05-01T14:50:03.442Z,50.11
2023-05-01T14:52:31.137Z,50.24
2023-05-01T14:54:58.901Z,50.31
2023-05-01T14:57:29.062Z,50.27
2023-05-01T14:59:58.412Z,50.41
2023-05-01T15:02:26.212Z,50.35
2023-05-01T15:04:53.985Z,50.60
2023-05-01T15:07:22.235Z,50.58
2023-05-01T15:09:50.631Z,50.75
2023-05-01T15:12:18.362Z,50.79
2023-05-01T15:14:46.128Z,50.83
2023-05-01T15:17:15.096Z,51.03
2023-05-01T15:19:42.834Z,50.93
2023-05-01T15:22:10.504Z,51.03
2023-05-01T15:24:39.131Z,51.07
2023-05-01T15:27:08.009Z,50.95
2023-05-01T15:29:35.796Z,50.89
2023-05-01T15:32:11.396Z,50.79
2023-05-01T15:34:42.942Z,50.93
2023-05-01T15:37:10.697Z,51.01
2023-05-01T15:39:40.343Z,50.91
2023-05-01T15:42:08.223Z,50.89
2023-05-01T15:44:35.938Z,50.84
2023-05-01T15:47:03.897Z,50.95
2023-05-01T15:49:31.682Z,50.84
2023-05-01T15:52:00.766Z,50.83
2023-05-01T15:54:28.814Z,50.80
2023-05-01T15:56:56.502Z,50.85
2023-05-01T15:59:24.513Z,50.77
2023-05-01T16:01:53.400Z,50.92
2023-05-01T16:04:21.167Z,50.77
2023-05-01T16:06:49.138Z,50.81
2023-05-01T16:09:18.880Z,50.84
2023-05-01T16:11:46.666Z,50.95
2023-05-01T16:14:14.891Z,50.86
2023-05-01T16:16:42.652Z,50.71
2023-05-01T16:19:11.877Z,50.80
2023-05-01T16:21:39.587Z,50.81
2023-05-01T16:24:07.410Z,50.88
2023-05-01T16:26:36.461Z,50.91
2023-05-01T16:29:05.587Z,50.92
2023-05-01T16:31:34.185Z,50.87
2023-05-01T16:34:02.007Z,50.85
2023-05-01T16:36:29.689Z,50.88
2023-05-01T16:38:57.336Z,50.78
2023-05-01T16:41:25.181Z,50.91
2023-05-01T16:43:54.322Z,50.96
2023-05-01T16:46:22.281Z,50.90
2023-05-01T16:48:50.082Z,50.90
2023-05-01T16:51:18.887Z,50.98
2023-05-01T16:53:46.603Z,51.01
2023-05-01T16:56:14.434Z,50.84
2023-05-01T16:58:43.814Z,50.94
2023-05-01T17:01:13.419Z,50.99
2023-05-01T17:03:41.135Z,50.91
2023-05-01T17:06:08.847Z,51.09
2023-05-01T17:08:36.556Z,50.96
2023-05-01T17:11:04.608Z,51.00
2023-05-01T17:13:32.394Z,50.99
2023-05-01T17:16:00.557Z,51.04
2023-05-01T17:18:29.590Z,50.92
2023-05-01T17:20:57.287Z,51.00
2023-05-01T17:23:28.035Z,51.14
2023-05-01T17:25:55.704Z,50.96
2023-05-01T17:28:23.964Z,51.00
2023-05-01T17:30:51.733Z,51.02
2023-05-01T17:33:19.422Z,51.10
2023-05-01T17:35:48.517Z,51.21
2023-05-01T17:38:17.084Z,51.23
2023-05-01T17:40:44.969Z,51.17
2023-05-01T17:43:12.652Z,51.19
2023-05-01T17:45:40.639Z,51.12
2023-05-01T17:48:08.344Z,51.14
2023-05-01T17:50:36.064Z,51.21
2023-05-01T17:53:05.116Z,51.23
2023-05-01T17:55:32.808Z,51.24
2023-05-01T17:58:00.445Z,51.21
2023-05-01T18:00:28.740Z,51.22
2023-05-01T18:02:56.574Z,51.15
2023-05-01T18:05:24.296Z,51.27
2023-05-01T18:07:52.048Z,51.24
2023-05-01T18:10:21.635Z,51.28
2023-05-01T18:12:49.891Z,51.19
2023-05-01T18:15:22.539Z,51.33
2023-05-01T18:17:50.923Z,51.18
2023-05-01T18:20:18.778Z,51.29
2023-05-01T18:22:46.473Z,51.18
2023-05-01T18:25:14.516Z,51.25
2023-05-01T18:27:43.649Z,51.29
2023-05-01T18:30:11.639Z,51.32
2023-05-01T18:32:47.006Z,51.22
2023-05-01T18:35:15.824Z,51.26
2023-05-01T18:37:44.052Z,51.24
2023-05-01T18:40:12.642Z,51.31
2023-05-01T18:42:40.919Z,51.32
2023-05-01T18:45:10.963Z,51.23
2023-05-01T18:47:38.729Z,51.35
2023-05-01T18:50:07.078Z,51.21
2023-05-01T18:52:37.057Z,51.35
2023-05-01T18:55:04.994Z,51.33
2023-05-01T18:57:32.672Z,51.38
2023-05-01T19:00:01.330Z,51.35
2023-05-01T19:02:30.652Z,51.32
2023-05-01T19:04:58.611Z,51.22
2023-05-01T19:07:26.561Z,51.39
2023-05-01T19:09:54.503Z,51.32
2023-05-01T19:12:22.184Z,51.31
2023-05-01T19:14:49.902Z,51.25
2023-05-01T19:17:17.609Z,51.38
2023-05-01T19:19:46.672Z,51.27
2023-05-01T19:22:14.357Z,51.39
2023-05-01T19:24:42.019Z,51.34
2023-05-01T19:27:09.737Z,51.42
2023-05-01T19:29:37.528Z,51.29
2023-05-01T19:32:05.483Z,51.29
2023-05-01T19:34:33.193Z,51.41
2023-05-01T19:37:02.563Z,51.43
2023-05-01T19:39:30.251Z,51.43
2023-05-01T19:41:57.935Z,51.45
2023-05-01T19:44:25.644Z,51.37
2023-05-01T19:46:53.315Z,51.33
2023-05-01T19:49:20.983Z,51.33
2023-05-01T19:51:48.784Z,51.39
2023-05-01T19:54:17.861Z,51.25
2023-05-01T19:56:46.807Z,51.35
2023-05-01T19:59:14.567Z,51.30
2023-05-01T20:01:42.346Z,51.40
2023-05-01T20:04:10.302Z,51.45
2023-05-01T20:06:38.023Z,51.39
2023-05-01T20:09:06.416Z,51.42
2023-05-01T20:11:35.506Z,51.42
2023-05-01T20:14:03.664Z,51.37
2023-05-01T20:16:31.464Z,51.47
2023-05-01T20:18:59.260Z,51.63
2023-05-01T20:21:27.493Z,51.85
2023-05-01T20:23:55.216Z,52.00
2023-05-01T20:26:23.555Z,52.16
2023-05-01T20:28:53.591Z,52.26
2023-05-01T20:31:21.398Z,52.28
2023-05-01T20:33:49.147Z,52.48
2023-05-01T20:36:17.390Z,52.57
2023-05-01T20:38:46.343Z,52.65
2023-05-01T20:41:14.132Z,52.69
2023-05-01T20:43:41.806Z,52.78
2023-05-01T20:46:10.981Z,52.83
2023-05-01T20:48:38.699Z,52.84
2023-05-01T20:51:06.419Z,52.92
2023-05-01T20:53:34.183Z,53.00
2023-05-01T20:56:02.313Z,53.06
2023-05-01T20:58:29.962Z,53.22
2023-05-01T21:00:57.659Z,53.34
2023-05-01T21:03:26.836Z,53.31
2023-05-01T21:05:58.822Z,53.30
2023-05-01T21:08:26.666Z,53.38
2023-05-01T21:10:54.406Z,53.43
2023-05-01T21:13:22.776Z,53.49
2023-05-01T21:15:50.586Z,53.44
2023-05-01T21:18:20.309Z,53.58
2023-05-01T21:20:49.429Z,53.65
2023-05-01T21:23:17.331Z,53.66
2023-05-01T21:25:45.006Z,53.72
2023-05-01T21:28:12.796Z,53.73
2023-05-01T21:30:40.596Z,53.78
2023-05-01T21:33:08.703Z,53.85
2023-05-01T21:35:36.373Z,53.95
2023-05-01T21:38:06.090Z,53.78
2023-05-01T21:40:35.339Z,53.84
2023-05-01T21:43:02.974Z,53.75
2023-05-01T21:45:30.727Z,53.82
2023-05-01T21:47:58.433Z,53.81
2023-05-01T21:50:26.179Z,53.81
2023-05-01T21:52:53.878Z,54.16
2023-05-01T21:55:23.099Z,54.37
2023-05-01T21:57:50.902Z,54.38
2023-05-01T22:00:19.235Z,54.57
2023-05-01T22:02:47.337Z,54.41
2023-05-01T22:05:15.506Z,54.73
2023-05-01T22:07:45.093Z,55.07
2023-05-01T22:10:14.032Z,55.24
2023-05-01T22:12:43.093Z,54.97
2023-05-01T22:15:11.199Z,55.48
2023-05-01T22:17:39.081Z,55.70
2023-05-01T22:20:07.473Z,55.41
2023-05-01T22:22:35.221Z,55.33
2023-05-01T22:25:02.939Z,55.71
2023-05-01T22:27:31.129Z,55.87
2023-05-01T22:30:00.412Z,55.81
2023-05-01T22:32:28.548Z,56.26
2023-05-01T22:34:56.316Z,56.02
2023-05-01T22:37:25.543Z,56.40
2023-05-01T22:39:53.299Z,56.45
2023-05-01T22:42:21.037Z,56.40
2023-05-01T22:44:49.039Z,56.46
2023-05-01T22:47:18.075Z,56.47
2023-05-01T22:49:45.793Z,56.45
2023-05-01T22:52:13.479Z,56.63
2023-05-01T22:54:41.215Z,56.79
2023-05-01T22:57:09.017Z,56.74
2023-05-01T22:59:37.550Z,56.64
2023-05-01T23:17:07.106Z,56.76
2023-05-01T23:19:34.820Z,56.79
2023-05-01T23:22:06.936Z,56.59
2023-05-01T23:24:37.203Z,56.66
2023-05-01T23:27:05.108Z,56.91
2023-05-01T23:29:32.860Z,56.88
